Time;durP1;ratioP1;P1;durP2;ratioP2;P2;SDS_P1;SDS_P2;PMS_P1;PMS_P2;Temp;Humidity;BMP_temperature;BMP_pressure;BME280_temperature;BME280_humidity;BME280_pressure;Samples;Min_cycle;Max_cycle;Signal;HPM_P1;HPM_P2
2022/02/19 00:04:43;;;;;;;0.20;0.10;;;12.80;99.90;;;;;;25209577;23;20170;-76
2022/02/19 00:14:48;;;;;;;0.20;0.00;;;12.90;99.90;;;;;;25209148;23;20193;-75
2022/02/19 00:24:54;;;;;;;0.20;0.10;;;12.70;99.90;;;;;;25209129;23;20176;-75
2022/02/19 00:34:58;;;;;;;0.20;0.10;;;12.50;99.90;;;;;;25208563;23;20211;-72
2022/02/19 00:45:04;;;;;;;0.20;0.10;;;12.30;99.90;;;;;;25209098;23;20200;-76
2022/02/19 00:55:09;;;;;;;0.20;0.10;;;12.00;99.90;;;;;;25210226;23;20245;-75
2022/02/19 01:05:14;;;;;;;0.20;0.10;;;11.90;99.90;;;;;;25208619;23;20176;-77
2022/02/19 01:15:18;;;;;;;0.20;0.10;;;12.00;99.90;;;;;;25207403;23;20200;-74
2022/02/19 01:25:23;;;;;;;0.20;0.10;;;11.80;99.90;;;;;;25207979;23;20184;-73
2022/02/19 01:35:27;;;;;;;0.20;0.00;;;11.60;99.90;;;;;;25207057;23;20216;-75
2022/02/19 01:45:32;;;;;;;0.20;0.00;;;11.50;99.90;;;;;;25207576;23;20193;-68
2022/02/19 01:55:37;;;;;;;1.57;1.50;;;11.40;99.90;;;;;;25206533;23;20188;-73
2022/02/19 02:05:42;;;;;;;0.20;0.10;;;11.50;99.90;;;;;;25206047;23;20189;-71
2022/02/19 02:15:46;;;;;;;0.20;0.10;;;11.60;99.90;;;;;;25206371;23;20185;-66
2022/02/19 02:25:53;;;;;;;0.20;0.10;;;11.70;99.90;;;;;;25206348;23;20177;-65
2022/02/19 02:35:57;;;;;;;0.20;0.10;;;11.70;99.90;;;;;;25206044;23;20197;-65
2022/02/19 02:46:02;;;;;;;0.20;0.10;;;11.60;99.90;;;;;;25207006;23;20212;-65
2022/02/19 02:56:09;;;;;;;0.20;0.10;;;11.40;99.90;;;;;;25214127;23;20196;-68
2022/02/19 03:06:15;;;;;;;1.10;1.07;;;11.50;99.90;;;;;;25188559;23;20165;-67
2022/02/19 03:16:19;;;;;;;0.20;0.10;;;11.50;99.90;;;;;;25212431;23;20264;-68
2022/02/19 03:26:24;;;;;;;0.20;0.10;;;11.50;99.90;;;;;;25188441;23;20177;-68
2022/02/19 03:36:28;;;;;;;0.20;0.10;;;11.50;99.90;;;;;;25212098;23;20205;-67
2022/02/19 03:46:37;;;;;;;0.20;0.10;;;11.50;99.90;;;;;;25210628;23;20204;-67
2022/02/19 03:56:43;;;;;;;0.20;0.10;;;11.40;99.90;;;;;;25211183;23;20185;-66
2022/02/19 04:06:48;;;;;;;0.20;0.10;;;11.30;99.90;;;;;;25210124;23;20199;-65
2022/02/19 04:16:52;;;;;;;0.20;0.10;;;11.50;99.90;;;;;;25210037;23;20201;-66
2022/02/19 04:26:57;;;;;;;0.20;0.10;;;11.60;99.90;;;;;;25209978;23;20165;-66
2022/02/19 04:37:01;;;;;;;0.20;0.10;;;11.70;99.90;;;;;;25207769;23;20208;-66
2022/02/19 04:47:06;;;;;;;0.20;0.10;;;11.80;99.90;;;;;;25206952;23;20189;-67
2022/02/19 04:57:10;;;;;;;0.20;0.10;;;11.90;99.90;;;;;;25207952;23;20200;-65
2022/02/19 05:07:15;;;;;;;0.20;0.10;;;12.10;99.90;;;;;;25205642;23;20188;-65
2022/02/19 05:17:19;;;;;;;0.20;0.00;;;12.00;99.90;;;;;;25203268;23;20196;-66
2022/02/19 05:27:24;;;;;;;0.20;0.10;;;12.10;99.90;;;;;;25206356;23;20173;-65
2022/02/19 05:37:30;;;;;;;0.20;0.10;;;12.20;99.90;;;;;;25202239;23;20314;-65
2022/02/19 05:47:35;;;;;;;0.20;0.10;;;12.10;99.90;;;;;;25206794;23;20193;-67
2022/02/19 05:57:42;;;;;;;0.20;0.10;;;12.00;99.90;;;;;;25205627;23;20188;-66
2022/02/19 06:07:47;;;;;;;0.20;0.10;;;12.10;99.90;;;;;;25205080;23;20165;-65
2022/02/19 06:17:51;;;;;;;0.20;0.10;;;11.90;99.90;;;;;;25205782;23;20192;-64
2022/02/19 06:27:56;;;;;;;0.20;0.10;;;11.90;99.90;;;;;;25204883;23;20180;-66
2022/02/19 06:38:00;;;;;;;0.20;0.10;;;11.90;99.90;;;;;;25204964;23;20204;-68
2022/02/19 06:48:06;;;;;;;0.20;0.10;;;11.90;99.90;;;;;;25203810;23;20222;-68
2022/02/19 06:58:10;;;;;;;0.20;0.10;;;12.20;99.90;;;;;;25204073;23;20202;-67
2022/02/19 07:08:15;;;;;;;0.20;0.10;;;12.10;99.90;;;;;;25202705;23;20180;-74
2022/02/19 07:18:19;;;;;;;0.20;0.10;;;12.10;99.90;;;;;;25198031;23;20200;-77
2022/02/19 07:28:24;;;;;;;0.20;0.10;;;12.20;99.90;;;;;;25197384;23;20173;-74
2022/02/19 07:38:28;;;;;;;0.20;0.00;;;12.30;99.90;;;;;;25202977;23;20207;-75
2022/02/19 07:48:33;;;;;;;0.20;0.10;;;12.40;99.90;;;;;;25206634;23;20196;-75
2022/02/19 07:58:37;;;;;;;0.20;0.10;;;12.70;99.90;;;;;;25203963;23;20195;-77
2022/02/19 08:08:43;;;;;;;0.20;0.00;;;12.80;99.90;;;;;;25206559;23;20180;-76
2022/02/19 08:18:50;;;;;;;0.20;0.00;;;13.00;99.90;;;;;;25206457;23;20192;-78
2022/02/19 08:28:55;;;;;;;0.20;0.10;;;12.90;99.90;;;;;;25203375;23;20158;-74
2022/02/19 08:38:59;;;;;;;0.20;0.10;;;12.80;99.90;;;;;;25201757;23;20201;-75
2022/02/19 08:49:04;;;;;;;0.20;0.10;;;12.90;99.90;;;;;;25200644;23;20203;-75
2022/02/19 08:59:08;;;;;;;0.20;0.10;;;13.10;99.90;;;;;;25199121;23;20189;-66
2022/02/19 09:09:13;;;;;;;0.20;0.10;;;13.30;99.90;;;;;;25198585;23;20172;-68
2022/02/19 09:19:17;;;;;;;0.20;0.10;;;13.30;99.90;;;;;;25195941;23;20206;-66
2022/02/19 09:29:22;;;;;;;0.20;0.10;;;13.40;99.90;;;;;;25199256;23;20180;-69
2022/02/19 09:39:26;;;;;;;0.20;0.10;;;13.50;99.90;;;;;;25197862;23;20216;-67
2022/02/19 09:49:32;;;;;;;0.20;0.10;;;13.50;99.90;;;;;;25197941;23;20189;-66
2022/02/19 09:59:36;;;;;;;0.20;0.00;;;13.80;99.90;;;;;;25196200;23;20201;-68
2022/02/19 10:09:42;;;;;;;0.20;0.10;;;14.30;99.90;;;;;;25195537;23;20172;-68
2022/02/19 10:19:57;;;;;;;0.20;0.10;;;14.30;99.90;;;;;;25194843;23;20188;-68
2022/02/19 10:30:06;;;;;;;0.20;0.10;;;14.20;99.90;;;;;;25168533;23;20172;-68
2022/02/19 10:40:27;;;;;;;0.20;0.10;;;14.20;99.90;;;;;;25186601;23;20252;-66
2022/02/19 10:50:33;;;;;;;0.20;0.00;;;14.20;99.90;;;;;;25191869;23;20183;-66
2022/02/19 11:00:45;;;;;;;0.20;0.00;;;14.30;99.90;;;;;;25194349;23;20204;-65
2022/02/19 11:10:52;;;;;;;0.20;0.10;;;14.40;99.90;;;;;;25197968;23;20176;-66
2022/02/19 11:20:56;;;;;;;0.20;0.10;;;14.40;99.90;;;;;;25195101;23;20523;-66
2022/02/19 11:31:01;;;;;;;0.20;0.03;;;14.40;99.90;;;;;;25199874;23;20173;-67
2022/02/19 11:41:09;;;;;;;0.20;0.10;;;14.30;99.90;;;;;;25201463;23;20204;-67
2022/02/19 11:51:17;;;;;;;0.20;0.10;;;14.30;99.90;;;;;;25201400;23;20188;-73
2022/02/19 12:01:21;;;;;;;0.20;0.10;;;14.30;99.90;;;;;;25199574;23;20180;-72
2022/02/19 12:11:27;;;;;;;0.20;0.10;;;14.20;99.90;;;;;;25198890;23;20169;-73
2022/02/19 12:21:31;;;;;;;0.20;0.10;;;14.20;99.90;;;;;;25198042;23;20192;-74
2022/02/19 12:31:37;;;;;;;0.20;0.10;;;14.20;99.90;;;;;;25196641;23;20165;-72
2022/02/19 12:41:44;;;;;;;0.20;0.10;;;14.00;99.90;;;;;;25199908;23;20291;-74
2022/02/19 12:51:57;;;;;;;0.20;0.10;;;14.00;99.90;;;;;;25201095;23;20169;-73
2022/02/19 13:02:02;;;;;;;0.20;0.10;;;13.70;99.90;;;;;;25173580;23;20260;-74
2022/02/19 13:12:08;;;;;;;0.20;0.00;;;13.90;99.90;;;;;;25196146;23;20173;-75
2022/02/19 13:22:13;;;;;;;0.20;0.10;;;13.80;99.90;;;;;;25196827;23;20192;-66
2022/02/19 13:32:22;;;;;;;0.20;0.00;;;14.20;99.90;;;;;;25175665;23;20169;-68
2022/02/19 13:42:39;;;;;;;0.20;0.10;;;14.20;99.90;;;;;;25200618;23;20224;-65
2022/02/19 13:52:46;;;;;;;0.20;0.10;;;13.80;99.90;;;;;;25200610;23;20188;-66
2022/02/19 14:03:00;;;;;;;0.20;0.00;;;13.50;99.90;;;;;;25191713;23;20188;-62
2022/02/19 14:13:12;;;;;;;0.20;0.10;;;13.10;99.90;;;;;;25190607;23;20184;-72
2022/02/19 14:23:20;;;;;;;0.20;0.10;;;12.50;99.90;;;;;;25200065;23;20195;-72
2022/02/19 14:33:26;;;;;;;0.20;0.10;;;12.00;99.90;;;;;;25194982;23;20192;-71
2022/02/19 14:43:30;;;;;;;0.20;0.10;;;12.10;99.90;;;;;;25170916;23;20209;-73
2022/02/19 14:53:35;;;;;;;0.20;0.10;;;12.20;99.90;;;;;;25205809;23;20169;-72
2022/02/19 15:03:39;;;;;;;0.20;0.10;;;12.10;99.90;;;;;;25204942;23;20295;-73
2022/02/19 15:13:49;;;;;;;0.20;0.10;;;12.00;99.90;;;;;;25207116;23;20168;-73
2022/02/19 15:23:53;;;;;;;0.20;0.10;;;12.00;99.90;;;;;;25205413;23;20264;-73
2022/02/19 15:33:58;;;;;;;0.20;0.10;;;12.00;99.90;;;;;;25201425;23;20244;-72
2022/02/19 15:44:02;;;;;;;0.20;0.10;;;11.90;99.90;;;;;;25200768;23;20250;-73
2022/02/19 15:54:07;;;;;;;0.20;0.10;;;11.90;99.90;;;;;;25174652;23;20679;-74
2022/02/19 16:04:11;;;;;;;0.20;0.10;;;11.90;99.90;;;;;;25175230;23;20208;-74
2022/02/19 16:14:17;;;;;;;0.20;0.10;;;11.80;99.90;;;;;;25176903;23;20241;-73
2022/02/19 16:24:21;;;;;;;0.20;0.10;;;11.80;99.90;;;;;;25199219;23;20180;-73
2022/02/19 16:34:27;;;;;;;0.20;0.10;;;11.70;99.90;;;;;;25196372;23;20269;-73
2022/02/19 16:44:31;;;;;;;0.20;0.10;;;11.70;99.90;;;;;;25199269;23;20189;-74
2022/02/19 16:54:37;;;;;;;0.20;0.10;;;11.60;99.90;;;;;;25196177;23;20168;-72
2022/02/19 17:04:41;;;;;;;0.20;0.10;;;11.80;99.90;;;;;;25197165;23;20173;-71
2022/02/19 17:14:48;;;;;;;0.20;0.10;;;11.60;99.90;;;;;;25199210;23;20262;-73
2022/02/19 17:24:51;;;;;;;0.20;0.10;;;11.40;99.90;;;;;;25196095;23;20181;-73
2022/02/19 17:34:56;;;;;;;0.20;0.10;;;11.40;99.90;;;;;;25196799;23;20215;-74
2022/02/19 17:45:00;;;;;;;0.20;0.10;;;11.30;99.90;;;;;;25199436;23;20192;-75
2022/02/19 17:55:07;;;;;;;0.20;0.10;;;11.40;99.90;;;;;;25199158;23;20407;-74
2022/02/19 18:05:11;;;;;;;0.20;0.10;;;11.80;99.90;;;;;;25195939;23;20415;-73
2022/02/19 18:15:17;;;;;;;0.20;0.00;;;11.70;99.90;;;;;;25193448;23;20232;-74
2022/02/19 18:25:21;;;;;;;0.20;0.10;;;11.60;99.90;;;;;;25195855;23;20169;-74
2022/02/19 18:35:27;;;;;;;0.20;0.10;;;11.40;99.90;;;;;;25198413;23;20205;-74
2022/02/19 18:45:31;;;;;;;0.20;0.10;;;11.40;99.90;;;;;;25199190;23;20199;-73
2022/02/19 18:55:36;;;;;;;0.20;0.10;;;11.20;99.90;;;;;;25196898;23;20205;-74
2022/02/19 19:05:42;;;;;;;0.20;0.10;;;11.00;99.90;;;;;;25197385;23;20165;-75
2022/02/19 19:15:50;;;;;;;0.20;0.10;;;10.90;99.90;;;;;;25184551;23;20201;-78
2022/02/19 19:25:54;;;;;;;0.20;0.10;;;10.60;99.90;;;;;;25194888;23;20165;-69
2022/02/19 19:36:00;;;;;;;0.20;0.07;;;10.20;99.90;;;;;;25176684;23;20204;-67
2022/02/19 19:46:03;;;;;;;0.20;0.10;;;10.10;99.90;;;;;;25204372;23;20189;-67
2022/02/19 19:56:10;;;;;;;0.20;0.00;;;10.30;99.90;;;;;;25176112;23;20221;-69
2022/02/19 20:06:14;;;;;;;0.20;0.10;;;10.30;99.90;;;;;;25196002;23;20172;-70
2022/02/19 20:16:20;;;;;;;0.20;0.10;;;10.00;99.90;;;;;;25200228;23;20198;-68
2022/02/19 20:26:23;;;;;;;0.20;0.10;;;9.80;99.90;;;;;;25201618;23;20172;-67
2022/02/19 20:36:29;;;;;;;0.20;0.00;;;9.70;99.90;;;;;;25200775;23;20280;-68
2022/02/19 20:46:34;;;;;;;0.20;0.00;;;9.50;99.90;;;;;;25202778;23;20195;-64
2022/02/19 20:56:39;;;;;;;0.20;0.00;;;9.60;99.90;;;;;;25200951;23;20204;-75
2022/02/19 21:06:43;;;;;;;0.20;0.10;;;9.80;99.90;;;;;;25199624;23;20165;-74
2022/02/19 21:16:49;;;;;;;0.20;0.10;;;9.70;99.90;;;;;;25202262;23;20278;-81
2022/02/19 21:26:53;;;;;;;0.20;0.10;;;9.80;99.90;;;;;;25200746;23;20165;-75
2022/02/19 21:36:59;;;;;;;0.20;0.07;;;9.80;99.90;;;;;;25199597;23;20197;-79
2022/02/19 21:47:03;;;;;;;0.20;0.10;;;9.70;99.90;;;;;;25200038;23;20189;-83
2022/02/19 21:57:10;;;;;;;0.20;0.10;;;9.70;99.90;;;;;;25200844;23;20188;-80
2022/02/19 22:07:14;;;;;;;0.20;0.07;;;9.50;99.90;;;;;;25200283;23;20180;-78
2022/02/19 22:17:19;;;;;;;0.20;0.10;;;9.30;99.90;;;;;;25198449;23;20204;-78
2022/02/19 22:27:26;;;;;;;0.20;0.10;;;9.20;99.90;;;;;;25197598;23;20168;-68
2022/02/19 22:37:32;;;;;;;0.20;0.07;;;9.30;99.90;;;;;;25199277;23;20201;-67
2022/02/19 22:47:35;;;;;;;0.20;0.00;;;9.20;99.90;;;;;;25198743;23;20193;-67
2022/02/19 22:57:40;;;;;;;0.20;0.10;;;9.20;99.90;;;;;;25198979;23;20188;-67
2022/02/19 23:07:45;;;;;;;0.20;0.10;;;9.10;99.90;;;;;;25204823;23;20173;-67
2022/02/19 23:17:50;;;;;;;0.20;0.10;;;9.70;99.90;;;;;;25207853;23;20203;-68
2022/02/19 23:27:54;;;;;;;0.20;0.10;;;10.20;99.90;;;;;;25198433;23;20173;-69
2022/02/19 23:37:59;;;;;;;0.20;0.10;;;10.20;99.90;;;;;;25203847;23;20204;-66
2022/02/19 23:48:07;;;;;;;0.20;0.10;;;10.20;99.90;;;;;;25203916;23;20193;-67
2022/02/19 23:58:12;;;;;;;0.20;0.10;;;10.00;99.90;;;;;;25204549;23;20189;-65
